createdAt,value
2022-08-05T00:00:17.453Z,41.18
2022-08-05T00:02:50.902Z,41.09
2022-08-05T00:06:03.134Z,41.82
2022-08-05T00:08:32.729Z,41.08
2022-08-05T00:10:56.327Z,41.82
2022-08-05T00:13:39.354Z,41.58
2022-08-05T00:16:09.591Z,43.07
2022-08-05T00:18:40.566Z,41.97
2022-08-05T00:21:09.260Z,40.92
2022-08-05T00:23:46.165Z,42.19
2022-08-05T00:26:20.376Z,42.49
2022-08-05T00:28:49.247Z,41.82
2022-08-05T00:31:16.495Z,41.82
2022-08-05T00:34:54.674Z,43.08
2022-08-05T00:37:11.367Z,43.11
2022-08-05T00:39:44.027Z,42.98
2022-08-05T00:42:11.128Z,43.41
2022-08-05T00:44:57.746Z,42.32
2022-08-05T00:47:24.205Z,42.89
2022-08-05T00:49:51.672Z,43.17
2022-08-05T00:52:28.688Z,43.38
2022-08-05T00:54:55.988Z,43.56
2022-08-05T00:57:25.188Z,43.14
2022-08-05T00:59:52.393Z,43.49
2022-08-05T01:02:18.843Z,44.52
2022-08-05T01:04:45.547Z,42.95
2022-08-05T01:07:17.966Z,44.12
2022-08-05T01:09:45.037Z,44.90
2022-08-05T01:12:20.106Z,44.93
2022-08-05T01:14:52.395Z,44.67
2022-08-05T01:17:43.871Z,45.73
2022-08-05T01:20:27.073Z,45.32
2022-08-05T01:23:34.807Z,45.13
2022-08-05T01:26:07.449Z,44.82
2022-08-05T01:28:51.430Z,45.39
2022-08-05T01:31:28.112Z,44.34
2022-08-05T01:34:21.305Z,44.55
2022-08-05T01:36:53.736Z,45.61
2022-08-05T01:39:46.728Z,45.60
2022-08-05T01:42:13.796Z,45.15
2022-08-05T01:44:44.280Z,45.85
2022-08-05T01:47:22.415Z,46.29
2022-08-05T01:50:01.764Z,45.16
2022-08-05T01:52:32.371Z,45.60
2022-08-05T01:55:04.630Z,46.36
2022-08-05T01:58:10.981Z,45.04
2022-08-05T02:00:30.524Z,44.89
2022-08-05T02:03:24.578Z,45.12
2022-08-05T02:06:03.582Z,45.36
2022-08-05T02:08:58.536Z,45.55
2022-08-05T02:11:33.375Z,45.96
2022-08-05T02:14:04.803Z,45.68
2022-08-05T02:16:52.814Z,45.62
2022-08-05T02:19:34.334Z,45.26
2022-08-05T02:22:27.267Z,45.56
2022-08-05T02:25:17.573Z,45.78
2022-08-05T02:27:57.943Z,45.96
2022-08-05T02:30:30.450Z,46.14
2022-08-05T02:32:58.744Z,46.08
2022-08-05T02:35:27.970Z,46.65
2022-08-05T02:37:58.994Z,46.37
2022-08-05T02:40:27.459Z,46.61
2022-08-05T02:42:56.427Z,46.28
2022-08-05T02:45:25.247Z,46.56
2022-08-05T02:48:06.711Z,46.35
2022-08-05T02:50:44.107Z,46.72
2022-08-05T02:53:18.788Z,47.65
2022-08-05T02:55:59.687Z,47.58
2022-08-05T02:58:30.048Z,47.60
2022-08-05T03:01:01.762Z,47.54
2022-08-05T03:03:34.345Z,47.64
2022-08-05T03:06:54.598Z,47.63
2022-08-05T03:09:04.221Z,47.59
2022-08-05T03:11:57.542Z,48.44
2022-08-05T03:14:17.413Z,49.25
2022-08-05T03:16:43.959Z,51.33
2022-08-05T03:19:12.918Z,50.26
2022-08-05T03:21:48.694Z,49.97
2022-08-05T03:24:28.645Z,49.71
2022-08-05T03:26:57.254Z,49.19
2022-08-05T03:29:23.990Z,48.86
2022-08-05T03:31:56.548Z,48.53
2022-08-05T03:34:28.561Z,48.00
2022-08-05T03:36:55.302Z,48.36
2022-08-05T03:39:27.244Z,48.22
2022-08-05T03:41:56.371Z,48.41
2022-08-05T03:44:23.829Z,48.16
2022-08-05T03:46:50.336Z,48.23
2022-08-05T03:49:16.860Z,47.86
2022-08-05T03:52:36.959Z,48.28
2022-08-05T03:56:04.333Z,48.50
2022-08-05T03:57:51.478Z,47.48
2022-08-05T04:00:19.330Z,47.85
2022-08-05T04:02:57.872Z,47.57
2022-08-05T04:05:33.379Z,47.30
2022-08-05T04:08:14.765Z,47.43
2022-08-05T04:10:53.180Z,47.84
2022-08-05T04:13:21.528Z,47.88
2022-08-05T04:16:03.150Z,47.16
2022-08-05T04:18:32.088Z,48.36
2022-08-05T04:20:58.608Z,48.38
2022-08-05T04:24:04.801Z,48.26
2022-08-05T04:26:15.363Z,48.64
2022-08-05T04:28:51.028Z,48.43
2022-08-05T04:31:18.302Z,48.75
2022-08-05T04:34:17.734Z,49.07
2022-08-05T04:36:44.960Z,49.84
2022-08-05T04:39:13.645Z,50.35
2022-08-05T04:41:40.257Z,50.06
2022-08-05T04:44:09.223Z,49.98
2022-08-05T04:46:37.106Z,49.95
2022-08-05T04:49:05.318Z,48.49
2022-08-05T04:51:38.856Z,47.84
2022-08-05T04:54:05.380Z,47.34
2022-08-05T04:56:37.100Z,48.16
2022-08-05T04:59:21.996Z,48.57
2022-08-05T05:02:07.177Z,48.85
2022-08-05T05:04:38.434Z,48.70
2022-08-05T05:07:12.341Z,48.72
2022-08-05T05:09:43.153Z,48.58
2022-08-05T05:12:11.777Z,48.40
2022-08-05T05:14:49.186Z,48.63
2022-08-05T05:17:22.755Z,48.68
2022-08-05T05:19:52.228Z,48.80
2022-08-05T05:22:24.396Z,49.23
2022-08-05T05:25:00.350Z,50.04
2022-08-05T05:27:45.767Z,50.49
2022-08-05T05:30:31.046Z,49.88
2022-08-05T05:33:16.150Z,49.22
2022-08-05T05:35:48.902Z,48.62
2022-08-05T05:38:26.714Z,48.05
2022-08-05T05:40:56.167Z,47.57
2022-08-05T05:43:57.048Z,47.08
2022-08-05T05:46:16.042Z,47.48
2022-08-05T05:48:46.335Z,46.62
2022-08-05T05:51:27.721Z,46.27
2022-08-05T05:54:01.994Z,45.75
2022-08-05T05:56:34.845Z,46.31
2022-08-05T05:59:07.650Z,45.35
2022-08-05T06:01:38.691Z,45.47
2022-08-05T06:04:12.674Z,45.45
2022-08-05T06:06:42.881Z,45.65
2022-08-05T06:09:17.440Z,45.49
2022-08-05T06:12:01.851Z,46.45
2022-08-05T06:14:34.582Z,46.84
2022-08-05T06:17:22.358Z,47.47
2022-08-05T06:19:56.742Z,48.21
2022-08-05T06:22:33.548Z,48.14
2022-08-05T06:25:59.673Z,48.83
2022-08-05T06:28:11.537Z,48.87
2022-08-05T06:30:45.887Z,49.39
2022-08-05T06:33:12.844Z,49.10
2022-08-05T06:36:07.488Z,48.35
2022-08-05T06:38:36.728Z,48.04
2022-08-05T06:41:04.887Z,47.89
2022-08-05T06:43:51.620Z,47.72
2022-08-05T06:46:18.151Z,47.74
2022-08-05T06:48:56.298Z,47.52
2022-08-05T06:51:29.781Z,46.87
2022-08-05T06:53:59.328Z,44.23
2022-08-05T06:56:27.285Z,43.30
2022-08-05T06:58:54.601Z,43.67
2022-08-05T07:01:21.521Z,41.69
2022-08-05T07:03:49.313Z,39.21
2022-08-05T07:06:15.887Z,39.16
2022-08-05T07:08:47.975Z,38.73
2022-08-05T07:11:22.327Z,38.63
2022-08-05T07:14:07.795Z,39.03
2022-08-05T07:17:59.331Z,36.08
2022-08-05T07:20:16.773Z,34.63
2022-08-05T07:22:28.992Z,34.82
2022-08-05T07:25:21.699Z,34.09
2022-08-05T07:27:58.585Z,33.72
2022-08-05T07:30:32.526Z,33.46
2022-08-05T07:33:00.123Z,35.41
2022-08-05T07:36:01.876Z,34.01
2022-08-05T07:38:26.497Z,32.78
2022-08-05T07:41:04.492Z,32.93
2022-08-05T07:43:46.292Z,32.02
2022-08-05T07:46:24.726Z,31.49
2022-08-05T07:49:02.460Z,33.53
2022-08-05T07:51:37.399Z,30.74
2022-08-05T07:54:08.519Z,32.88
2022-08-05T07:56:59.842Z,34.16
2022-08-05T07:59:38.624Z,34.62
2022-08-05T08:02:16.826Z,33.76
2022-08-05T08:04:48.307Z,32.94
2022-08-05T08:07:15.490Z,30.59
2022-08-05T08:09:42.670Z,30.34
2022-08-05T08:12:19.937Z,32.76
2022-08-05T08:14:56.151Z,31.06
2022-08-05T08:17:23.211Z,32.60
2022-08-05T08:20:21.107Z,33.80
2022-08-05T08:22:36.724Z,35.21
2022-08-05T08:25:16.251Z,35.67
2022-08-05T08:27:47.573Z,34.77
2022-08-05T08:30:28.520Z,33.21
2022-08-05T08:33:04.586Z,32.78
2022-08-05T08:35:41.262Z,31.21
2022-08-05T08:38:35.219Z,30.33
2022-08-05T08:41:04.855Z,31.48
2022-08-05T08:45:20.311Z,29.42
2022-08-05T08:46:21.604Z,28.96
2022-08-05T08:49:07.900Z,28.85
2022-08-05T08:52:04.221Z,31.00
2022-08-05T08:54:27.415Z,31.16
2022-08-05T08:56:56.908Z,32.00
2022-08-05T08:59:27.523Z,34.31
2022-08-05T09:01:57.483Z,34.86
2022-08-05T09:04:31.001Z,35.43
2022-08-05T09:06:58.598Z,35.82
2022-08-05T09:09:26.075Z,35.17
2022-08-05T09:12:13.376Z,34.75
2022-08-05T09:14:56.508Z,34.11
2022-08-05T09:17:42.271Z,33.24
2022-08-05T09:20:13.104Z,32.68
2022-08-05T09:23:19.419Z,31.69
2022-08-05T09:26:02.374Z,29.12
2022-08-05T09:28:33.480Z,28.13
2022-08-05T09:31:22.925Z,26.44
2022-08-05T09:34:09.897Z,25.20
2022-08-05T09:36:55.403Z,25.09
2022-08-05T09:39:39.495Z,26.52
2022-08-05T09:42:23.550Z,25.17
2022-08-05T09:44:56.819Z,24.09
2022-08-05T09:47:36.439Z,24.34
2022-08-05T09:50:17.895Z,24.97
2022-08-05T09:53:01.070Z,23.85
2022-08-05T09:55:59.234Z,24.20
2022-08-05T09:58:15.617Z,23.80
2022-08-05T10:01:15.164Z,25.23
2022-08-05T10:04:03.223Z,25.10
2022-08-05T10:06:34.562Z,24.45
2022-08-05T10:09:27.811Z,25.70
2022-08-05T10:12:31.129Z,22.95
2022-08-05T10:14:54.646Z,21.40
2022-08-05T10:17:37.583Z,20.96
2022-08-05T10:20:09.764Z,23.24
2022-08-05T10:22:39.770Z,23.16
2022-08-05T10:25:15.669Z,23.71
2022-08-05T10:28:13.878Z,23.23
2022-08-05T10:32:47.404Z,23.54
2022-08-05T10:33:15.761Z,25.42
2022-08-05T10:35:44.221Z,25.85
2022-08-05T10:38:13.359Z,25.16
2022-08-05T10:40:52.253Z,25.27
2022-08-05T10:43:43.212Z,26.23
2022-08-05T10:46:13.438Z,26.27
2022-08-05T10:48:57.318Z,26.72
2022-08-05T10:51:28.879Z,26.58
2022-08-05T10:54:05.938Z,26.88
2022-08-05T10:56:53.367Z,26.22
2022-08-05T11:00:04.362Z,26.39
2022-08-05T11:02:37.609Z,26.08
2022-08-05T11:05:10.428Z,25.97
2022-08-05T11:08:03.226Z,25.27
2022-08-05T11:10:50.091Z,25.22
2022-08-05T11:13:57.641Z,25.74
2022-08-05T11:16:47.395Z,25.58
2022-08-05T11:20:10.369Z,26.54
2022-08-05T11:22:39.761Z,26.77
2022-08-05T11:26:05.273Z,27.11
2022-08-05T11:28:18.125Z,26.37
2022-08-05T11:31:01.682Z,26.63
2022-08-05T11:33:48.675Z,25.55
2022-08-05T11:36:34.256Z,25.56
2022-08-05T11:39:08.466Z,25.61
2022-08-05T11:42:02.030Z,26.44
2022-08-05T11:44:52.865Z,26.28
2022-08-05T11:47:15.166Z,25.85
2022-08-05T11:49:49.694Z,25.19
2022-08-05T11:52:29.501Z,25.39
2022-08-05T11:54:59.327Z,26.20
2022-08-05T11:58:08.446Z,25.58
2022-08-05T12:00:28.920Z,25.71
2022-08-05T12:02:56.751Z,25.59
2022-08-05T12:05:32.493Z,24.76
2022-08-05T12:08:10.127Z,24.17
2022-08-05T12:10:45.965Z,24.10
2022-08-05T12:13:27.935Z,24.45
2022-08-05T12:16:14.228Z,24.47
2022-08-05T12:18:49.524Z,24.69
2022-08-05T12:21:44.906Z,25.95
2022-08-05T12:24:17.157Z,26.18
2022-08-05T12:26:45.270Z,25.96
2022-08-05T12:29:16.105Z,26.59
2022-08-05T12:32:02.123Z,26.35
2022-08-05T12:34:31.081Z,26.27
2022-08-05T12:37:00.563Z,26.17
2022-08-05T12:39:37.246Z,26.02
2022-08-05T12:42:14.837Z,25.96
2022-08-05T12:44:44.793Z,24.71
2022-08-05T12:47:13.197Z,24.59
2022-08-05T12:50:04.403Z,25.11
2022-08-05T12:52:42.923Z,25.55
2022-08-05T12:55:39.604Z,25.59
2022-08-05T12:58:49.099Z,25.02
2022-08-05T13:02:00.417Z,25.86
2022-08-05T13:03:59.339Z,25.02
2022-08-05T13:06:38.834Z,24.88
2022-08-05T13:09:28.000Z,25.00
2022-08-05T13:12:16.319Z,24.76
2022-08-05T13:15:05.689Z,24.70
2022-08-05T13:17:41.539Z,24.43
2022-08-05T13:20:23.600Z,24.89
2022-08-05T13:22:52.745Z,25.13
2022-08-05T13:25:22.197Z,25.48
2022-08-05T13:28:07.834Z,25.71
2022-08-05T13:30:38.943Z,25.35
2022-08-05T13:33:06.300Z,25.94
2022-08-05T13:35:51.749Z,25.61
2022-08-05T13:38:34.213Z,25.26
2022-08-05T13:41:05.941Z,25.21
2022-08-05T13:43:44.916Z,25.30
2022-08-05T13:46:30.772Z,25.21
2022-08-05T13:49:09.774Z,25.02
2022-08-05T13:51:46.254Z,24.97
2022-08-05T13:54:16.456Z,25.27
2022-08-05T13:56:51.589Z,25.21
2022-08-05T13:59:23.787Z,25.08
2022-08-05T14:01:57.674Z,24.34
2022-08-05T14:04:49.872Z,24.69
2022-08-05T14:07:25.727Z,24.70
2022-08-05T14:10:18.750Z,23.80
2022-08-05T14:12:54.609Z,24.17
2022-08-05T14:16:07.635Z,23.66
2022-08-05T14:18:15.162Z,23.46
2022-08-05T14:20:47.098Z,23.79
2022-08-05T14:23:14.704Z,24.45
2022-08-05T14:25:53.114Z,24.21
2022-08-05T14:28:26.444Z,24.49
2022-08-05T14:30:54.612Z,25.05
2022-08-05T14:33:22.977Z,25.15
2022-08-05T14:35:52.054Z,25.77
2022-08-05T14:38:32.506Z,25.08
2022-08-05T14:41:05.579Z,24.75
2022-08-05T14:43:59.036Z,25.23
2022-08-05T14:46:20.790Z,25.04
2022-08-05T14:48:50.010Z,25.41
2022-08-05T14:51:17.531Z,25.36
2022-08-05T14:53:44.914Z,25.82
2022-08-05T14:56:12.105Z,26.74
2022-08-05T14:58:47.790Z,27.19
2022-08-05T15:01:47.293Z,27.39
2022-08-05T15:04:09.908Z,27.54
2022-08-05T15:06:38.771Z,27.00
2022-08-05T15:09:06.923Z,26.37
2022-08-05T15:11:51.712Z,26.07
2022-08-05T15:14:35.637Z,26.07
2022-08-05T15:17:09.799Z,26.13
2022-08-05T15:20:00.683Z,26.15
2022-08-05T15:22:28.487Z,26.03
2022-08-05T15:24:56.899Z,26.40
2022-08-05T15:27:25.406Z,26.73
2022-08-05T15:29:56.510Z,26.88
2022-08-05T15:32:27.493Z,27.46
2022-08-05T15:34:56.666Z,27.36
2022-08-05T15:38:32.448Z,27.05
2022-08-05T15:40:58.968Z,27.46
2022-08-05T15:43:12.507Z,27.76
2022-08-05T15:45:45.663Z,28.15
2022-08-05T15:48:14.444Z,27.88
2022-08-05T15:50:43.586Z,28.32
2022-08-05T15:53:12.482Z,29.11
2022-08-05T15:56:02.134Z,28.14
2022-08-05T15:58:28.103Z,28.57
2022-08-05T16:01:12.040Z,29.24
2022-08-05T16:03:42.633Z,30.20
2022-08-05T16:06:11.446Z,29.74
2022-08-05T16:08:38.722Z,30.54
2022-08-05T16:11:06.906Z,30.47
2022-08-05T16:13:35.055Z,30.64
2022-08-05T16:16:03.254Z,30.50
2022-08-05T16:18:31.024Z,31.64
2022-08-05T16:20:58.544Z,32.64
2022-08-05T16:23:25.426Z,32.89
2022-08-05T16:26:03.937Z,33.43
2022-08-05T16:28:30.366Z,33.79
2022-08-05T16:30:56.839Z,33.65
2022-08-05T16:33:25.275Z,33.58
2022-08-05T16:35:54.160Z,33.34
2022-08-05T16:38:25.523Z,33.29
2022-08-05T16:41:00.445Z,33.89
2022-08-05T16:43:33.204Z,33.75
2022-08-05T16:46:04.637Z,33.43
2022-08-05T16:48:38.306Z,33.82
2022-08-05T16:51:08.806Z,34.01
2022-08-05T16:54:03.362Z,34.27
2022-08-05T16:56:25.715Z,35.01
2022-08-05T16:58:52.504Z,35.81
2022-08-05T17:01:19.252Z,36.14
2022-08-05T17:03:46.191Z,36.52
2022-08-05T17:06:13.249Z,36.98
2022-08-05T17:08:52.891Z,37.40
2022-08-05T17:11:20.762Z,37.07
2022-08-05T17:13:50.856Z,36.90
2022-08-05T17:16:32.515Z,37.00
2022-08-05T17:18:59.900Z,37.27
2022-08-05T17:21:35.572Z,37.09
2022-08-05T17:24:19.648Z,37.21
2022-08-05T17:26:49.660Z,37.39
2022-08-05T17:29:17.191Z,37.64
2022-08-05T17:31:58.353Z,37.37
2022-08-05T17:34:29.458Z,38.09
2022-08-05T17:36:57.011Z,38.39
2022-08-05T17:39:33.113Z,38.83
2022-08-05T17:42:19.890Z,38.96
2022-08-05T17:44:50.312Z,38.86
2022-08-05T17:47:22.092Z,38.89
2022-08-05T17:49:59.738Z,39.37
2022-08-05T17:52:33.395Z,39.42
2022-08-05T17:55:00.931Z,39.41
2022-08-05T17:57:29.649Z,40.19
2022-08-05T18:00:05.015Z,40.78
2022-08-05T18:02:36.238Z,40.93
2022-08-05T18:05:07.777Z,41.49
2022-08-05T18:07:41.551Z,41.43
2022-08-05T18:10:11.306Z,41.64
2022-08-05T18:12:38.776Z,41.54
2022-08-05T18:15:06.075Z,42.05
2022-08-05T18:18:00.393Z,42.27
2022-08-05T18:20:29.252Z,42.53
2022-08-05T18:22:57.945Z,42.34
2022-08-05T18:25:33.448Z,42.43
2022-08-05T18:30:55.190Z,42.52
2022-08-05T18:33:24.713Z,42.48
2022-08-05T18:36:03.522Z,43.12
2022-08-05T18:38:37.365Z,43.60
2022-08-05T18:41:53.654Z,43.85
2022-08-05T18:44:33.125Z,43.56
2022-08-05T18:47:08.444Z,43.49
2022-08-05T18:50:15.913Z,43.87
2022-08-05T18:52:51.347Z,43.36
2022-08-05T18:55:19.786Z,43.99
2022-08-05T18:57:53.831Z,43.64
2022-08-05T19:00:34.862Z,43.80
2022-08-05T19:03:04.858Z,44.12
2022-08-05T19:06:11.175Z,44.37
2022-08-05T19:08:21.868Z,45.01
2022-08-05T19:10:59.445Z,45.34
2022-08-05T19:13:29.847Z,46.32
2022-08-05T19:16:03.567Z,46.59
2022-08-05T19:18:31.810Z,46.72
2022-08-05T19:20:59.558Z,48.22
2022-08-05T19:24:08.037Z,49.07
2022-08-05T19:26:18.592Z,49.43
2022-08-05T19:28:45.417Z,51.29
2022-08-05T19:31:13.693Z,52.68
2022-08-05T19:33:48.261Z,52.96
2022-08-05T19:36:23.531Z,53.65
2022-08-05T19:38:50.006Z,54.48
2022-08-05T19:41:22.133Z,54.01
2022-08-05T19:44:12.939Z,54.66
2022-08-05T19:46:41.321Z,55.22
2022-08-05T19:49:16.380Z,54.94
2022-08-05T19:52:05.794Z,55.46
2022-08-05T19:54:32.856Z,55.58
2022-08-05T19:57:06.479Z,55.19
2022-08-05T20:00:02.152Z,55.78
2022-08-05T20:02:25.277Z,55.80
2022-08-05T20:04:52.987Z,55.97
2022-08-05T20:07:45.987Z,57.02
2022-08-05T20:10:13.841Z,57.17
2022-08-05T20:12:57.975Z,58.23
2022-08-05T20:15:52.662Z,57.83
2022-08-05T20:19:04.391Z,58.91
2022-08-05T20:21:32.099Z,57.97
2022-08-05T20:26:45.532Z,57.67
2022-08-05T20:29:27.669Z,58.06
2022-08-05T20:32:00.454Z,57.90
2022-08-05T20:34:27.162Z,59.02
2022-08-05T20:36:53.669Z,59.55
2022-08-05T20:39:22.237Z,60.18
2022-08-05T20:41:48.851Z,60.08
2022-08-05T20:44:30.343Z,60.92
2022-08-05T20:47:00.000Z,60.72
2022-08-05T20:49:27.234Z,60.30
2022-08-05T20:51:55.132Z,61.45
2022-08-05T20:54:55.338Z,61.34
2022-08-05T20:57:24.741Z,61.46
2022-08-05T21:00:20.199Z,62.05
2022-08-05T21:02:55.475Z,61.91
2022-08-05T21:05:23.785Z,62.74
2022-08-05T21:07:52.024Z,61.84
2022-08-05T21:10:19.108Z,63.37
2022-08-05T21:13:08.977Z,63.98
2022-08-05T21:15:34.072Z,64.48
2022-08-05T21:18:00.948Z,66.63
2022-08-05T21:20:33.425Z,78.97
2022-08-05T21:23:00.320Z,81.17
2022-08-05T21:25:34.016Z,82.27
2022-08-05T21:28:02.229Z,81.55
2022-08-05T21:30:28.741Z,81.96
2022-08-05T21:32:55.186Z,82.75
2022-08-05T21:35:29.763Z,81.39
2022-08-05T21:37:57.425Z,82.30
2022-08-05T21:40:24.852Z,82.08
2022-08-05T21:42:52.996Z,81.49
2022-08-05T21:45:26.504Z,81.65
2022-08-05T21:48:08.250Z,82.02
2022-08-05T21:50:35.078Z,81.58
2022-08-05T21:53:16.416Z,80.53
2022-08-05T21:56:04.780Z,79.60
2022-08-05T21:58:32.236Z,80.95
2022-08-05T22:00:59.563Z,81.48
2022-08-05T22:03:48.307Z,81.20
2022-08-05T22:06:12.640Z,80.37
2022-08-05T22:08:42.771Z,79.96
2022-08-05T22:11:11.927Z,79.07
2022-08-05T22:14:05.741Z,78.30
2022-08-05T22:16:50.814Z,79.03
2022-08-05T22:20:00.677Z,79.13
2022-08-05T22:22:01.557Z,79.78
2022-08-05T22:24:52.431Z,78.67
2022-08-05T22:28:08.358Z,77.09
2022-08-05T22:30:25.400Z,77.58
2022-08-05T22:33:01.574Z,75.79
2022-08-05T22:35:31.136Z,76.63
2022-08-05T22:38:14.643Z,75.33
2022-08-05T22:40:41.757Z,75.66
2022-08-05T22:43:16.157Z,76.11
2022-08-05T22:46:09.078Z,76.69
2022-08-05T22:48:41.597Z,76.93
2022-08-05T22:51:08.173Z,76.00
2022-08-05T22:53:42.687Z,76.69
2022-08-05T22:56:16.378Z,75.11
2022-08-05T22:58:43.779Z,74.19
2022-08-05T23:01:10.533Z,74.36
2022-08-05T23:03:57.906Z,76.47
2022-08-05T23:06:23.623Z,77.30
2022-08-05T23:08:52.914Z,77.00
2022-08-05T23:11:19.408Z,76.22
2022-08-05T23:13:45.981Z,77.33
2022-08-05T23:16:25.973Z,76.25
2022-08-05T23:18:59.640Z,75.42
2022-08-05T23:21:26.053Z,74.28
2022-08-05T23:24:11.483Z,74.28
2022-08-05T23:26:38.239Z,75.94
2022-08-05T23:29:05.465Z,75.49
2022-08-05T23:31:36.259Z,77.04
2022-08-05T23:34:06.674Z,77.57
2022-08-05T23:36:40.178Z,77.84
2022-08-05T23:39:17.398Z,78.08
2022-08-05T23:41:50.227Z,78.21
2022-08-05T23:44:16.793Z,78.25
2022-08-05T23:46:43.451Z,78.15
2022-08-05T23:49:16.133Z,78.24
2022-08-05T23:52:02.819Z,78.32
2022-08-05T23:54:36.389Z,78.73
2022-08-05T23:57:05.161Z,77.60
